Terminal Aerodrome Forecast
Issued by NWS Riverton, WY

Home | Current Version | Previous Version | Text Only | Print | Product List | Glossary On
Versions: 1 2 3 4 5 6 7 8 9 10 11 12 13 14 15 16 17 18
000
FTUS45 KRIW 010202 AAB
TAFRIW
TAF AMD
KRIW 010202Z 0102/0124 VRB06KT P6SM SCT100 BKN200
     FM010800 VRB05KT P6SM FEW110 SCT250
     FM012100 02006KT P6SM SCT100=

USA.gov is the U.S. government's official web portal to all federal, state and local government web resources and services.